sensor_id;sensor_type;location;lat;lon;timestamp;pressure;altitude;pressure_sealevel;temperature;humidity
49341;BME280;35209;51.050;13.678;2022-10-31T00:02:10;100330.09;;;9.52;100.00
49341;BME280;35209;51.050;13.678;2022-10-31T00:07:12;100328.50;;;9.82;100.00
49341;BME280;35209;51.050;13.678;2022-10-31T00:12:14;100336.47;;;9.41;100.00
49341;BME280;35209;51.050;13.678;2022-10-31T00:17:16;100343.88;;;9.62;100.00
49341;BME280;35209;51.050;13.678;2022-10-31T00:22:17;100341.88;;;9.34;100.00
49341;BME280;35209;51.050;13.678;2022-10-31T00:27:19;100352.53;;;9.66;100.00
49341;BME280;35209;51.050;13.678;2022-10-31T00:32:21;100349.16;;;9.59;100.00
49341;BME280;35209;51.050;13.678;2022-10-31T00:37:23;100350.03;;;9.59;100.00
49341;BME280;35209;51.050;13.678;2022-10-31T00:42:25;100352.91;;;9.08;100.00
49341;BME280;35209;51.050;13.678;2022-10-31T00:47:27;100352.91;;;9.49;100.00
49341;BME280;35209;51.050;13.678;2022-10-31T00:52:28;100347.66;;;9.07;100.00
49341;BME280;35209;51.050;13.678;2022-10-31T00:57:31;100346.31;;;9.31;100.00
49341;BME280;35209;51.050;13.678;2022-10-31T01:02:32;100361.88;;;8.97;100.00
49341;BME280;35209;51.050;13.678;2022-10-31T01:07:39;100355.53;;;9.07;100.00
49341;BME280;35209;51.050;13.678;2022-10-31T01:12:45;100369.66;;;9.01;100.00
49341;BME280;35209;51.050;13.678;2022-10-31T01:17:48;100366.03;;;9.07;100.00
49341;BME280;35209;51.050;13.678;2022-10-31T01:22:49;100363.66;;;8.95;100.00
49341;BME280;35209;51.050;13.678;2022-10-31T01:27:51;100361.56;;;9.12;100.00
49341;BME280;35209;51.050;13.678;2022-10-31T01:32:52;100367.34;;;8.86;100.00
49341;BME280;35209;51.050;13.678;2022-10-31T01:37:54;100358.09;;;9.10;100.00
49341;BME280;35209;51.050;13.678;2022-10-31T01:42:56;100368.19;;;8.87;100.00
49341;BME280;35209;51.050;13.678;2022-10-31T01:47:58;100360.66;;;8.70;100.00
49341;BME280;35209;51.050;13.678;2022-10-31T01:53:01;100362.38;;;8.72;100.00
49341;BME280;35209;51.050;13.678;2022-10-31T01:58:09;100361.97;;;8.46;100.00
49341;BME280;35209;51.050;13.678;2022-10-31T02:03:13;100370.41;;;8.62;100.00
49341;BME280;35209;51.050;13.678;2022-10-31T02:08:21;100369.00;;;8.89;100.00
49341;BME280;35209;51.050;13.678;2022-10-31T02:13:25;100371.22;;;8.65;100.00
49341;BME280;35209;51.050;13.678;2022-10-31T02:18:30;100370.06;;;8.80;100.00
49341;BME280;35209;51.050;13.678;2022-10-31T02:34:22;100379.34;;;8.51;100.00
49341;BME280;35209;51.050;13.678;2022-10-31T02:39:44;100382.28;;;8.30;100.00
49341;BME280;35209;51.050;13.678;2022-10-31T02:45:03;100371.13;;;8.70;100.00
49341;BME280;35209;51.050;13.678;2022-10-31T02:50:14;100390.06;;;8.34;100.00
49341;BME280;35209;51.050;13.678;2022-10-31T03:00:39;100389.59;;;8.62;100.00
49341;BME280;35209;51.050;13.678;2022-10-31T03:06:00;100389.59;;;8.64;100.00
49341;BME280;35209;51.050;13.678;2022-10-31T03:11:08;100394.81;;;8.65;100.00
49341;BME280;35209;51.050;13.678;2022-10-31T03:21:29;100387.94;;;8.04;100.00
49341;BME280;35209;51.050;13.678;2022-10-31T03:26:35;100391.81;;;8.34;100.00
49341;BME280;35209;51.050;13.678;2022-10-31T03:31:44;100401.34;;;8.41;100.00
49341;BME280;35209;51.050;13.678;2022-10-31T03:36:53;100395.50;;;8.22;100.00
49341;BME280;35209;51.050;13.678;2022-10-31T03:42:00;100410.28;;;8.26;100.00
49341;BME280;35209;51.050;13.678;2022-10-31T03:47:04;100405.56;;;7.94;100.00
49341;BME280;35209;51.050;13.678;2022-10-31T03:52:21;100404.69;;;7.94;100.00
49341;BME280;35209;51.050;13.678;2022-10-31T04:02:39;100407.06;;;8.11;100.00
49341;BME280;35209;51.050;13.678;2022-10-31T04:07:45;100412.63;;;7.89;100.00
49341;BME280;35209;51.050;13.678;2022-10-31T04:12:51;100416.75;;;8.04;100.00
49341;BME280;35209;51.050;13.678;2022-10-31T04:17:59;100413.09;;;8.16;100.00
49341;BME280;35209;51.050;13.678;2022-10-31T04:23:03;100409.22;;;7.82;100.00
49341;BME280;35209;51.050;13.678;2022-10-31T04:28:05;100420.50;;;7.86;100.00
49341;BME280;35209;51.050;13.678;2022-10-31T04:33:07;100418.19;;;7.65;100.00
49341;BME280;35209;51.050;13.678;2022-10-31T04:38:09;100423.09;;;7.89;100.00
49341;BME280;35209;51.050;13.678;2022-10-31T04:43:12;100420.28;;;8.00;100.00
49341;BME280;35209;51.050;13.678;2022-10-31T04:48:16;100416.22;;;7.79;100.00
49341;BME280;35209;51.050;13.678;2022-10-31T04:53:19;100421.59;;;7.71;100.00
49341;BME280;35209;51.050;13.678;2022-10-31T04:58:52;100424.22;;;7.70;100.00
49341;BME280;35209;51.050;13.678;2022-10-31T05:03:56;100422.34;;;7.78;100.00
49341;BME280;35209;51.050;13.678;2022-10-31T05:08:57;100424.00;;;7.85;100.00
49341;BME280;35209;51.050;13.678;2022-10-31T05:14:00;100425.78;;;7.83;100.00
49341;BME280;35209;51.050;13.678;2022-10-31T05:19:24;100425.69;;;7.89;100.00
49341;BME280;35209;51.050;13.678;2022-10-31T05:24:54;100429.75;;;7.48;100.00
49341;BME280;35209;51.050;13.678;2022-10-31T05:29:56;100427.72;;;7.69;100.00
49341;BME280;35209;51.050;13.678;2022-10-31T05:34:58;100433.75;;;7.74;100.00
49341;BME280;35209;51.050;13.678;2022-10-31T05:40:22;100437.69;;;7.39;100.00
49341;BME280;35209;51.050;13.678;2022-10-31T05:45:24;100441.19;;;7.38;100.00
49341;BME280;35209;51.050;13.678;2022-10-31T05:50:31;100446.31;;;7.49;100.00
49341;BME280;35209;51.050;13.678;2022-10-31T05:55:50;100446.41;;;7.41;100.00
49341;BME280;35209;51.050;13.678;2022-10-31T06:00:54;100445.50;;;7.42;100.00
49341;BME280;35209;51.050;13.678;2022-10-31T06:05:56;100449.78;;;7.48;100.00
49341;BME280;35209;51.050;13.678;2022-10-31T06:11:03;100450.72;;;7.45;100.00
49341;BME280;35209;51.050;13.678;2022-10-31T06:16:24;100456.81;;;7.46;100.00
49341;BME280;35209;51.050;13.678;2022-10-31T06:21:29;100468.09;;;7.48;100.00
49341;BME280;35209;51.050;13.678;2022-10-31T06:26:31;100464.75;;;7.37;100.00
49341;BME280;35209;51.050;13.678;2022-10-31T06:31:33;100475.88;;;7.57;100.00
49341;BME280;35209;51.050;13.678;2022-10-31T06:36:34;100479.34;;;7.56;100.00
49341;BME280;35209;51.050;13.678;2022-10-31T06:41:37;100482.00;;;7.53;100.00
49341;BME280;35209;51.050;13.678;2022-10-31T06:46:41;100492.19;;;7.76;100.00
49341;BME280;35209;51.050;13.678;2022-10-31T06:52:01;100490.56;;;7.66;100.00
49341;BME280;35209;51.050;13.678;2022-10-31T06:57:03;100495.31;;;8.02;100.00
49341;BME280;35209;51.050;13.678;2022-10-31T07:02:08;100493.56;;;8.03;100.00
49341;BME280;35209;51.050;13.678;2022-10-31T07:07:12;100498.84;;;8.00;100.00
49341;BME280;35209;51.050;13.678;2022-10-31T07:12:15;100503.81;;;8.20;100.00
49341;BME280;35209;51.050;13.678;2022-10-31T07:17:27;100515.06;;;8.23;100.00
49341;BME280;35209;51.050;13.678;2022-10-31T07:22:37;100514.91;;;8.39;100.00
49341;BME280;35209;51.050;13.678;2022-10-31T07:27:42;100520.03;;;8.46;100.00
49341;BME280;35209;51.050;13.678;2022-10-31T07:32:50;100521.59;;;8.56;100.00
49341;BME280;35209;51.050;13.678;2022-10-31T07:37:53;100521.19;;;8.82;100.00
49341;BME280;35209;51.050;13.678;2022-10-31T07:42:57;100527.25;;;8.86;100.00
49341;BME280;35209;51.050;13.678;2022-10-31T07:48:25;100529.72;;;8.94;100.00
49341;BME280;35209;51.050;13.678;2022-10-31T07:53:45;100529.47;;;9.09;100.00
49341;BME280;35209;51.050;13.678;2022-10-31T07:58:56;100521.84;;;9.42;100.00
49341;BME280;35209;51.050;13.678;2022-10-31T08:03:58;100532.25;;;9.48;100.00
49341;BME280;35209;51.050;13.678;2022-10-31T08:09:18;100532.06;;;9.57;100.00
49341;BME280;35209;51.050;13.678;2022-10-31T08:14:19;100535.28;;;9.71;100.00
49341;BME280;35209;51.050;13.678;2022-10-31T08:19:21;100535.66;;;9.96;100.00
49341;BME280;35209;51.050;13.678;2022-10-31T08:24:24;100531.16;;;10.00;100.00
49341;BME280;35209;51.050;13.678;2022-10-31T08:29:27;100513.94;;;10.28;100.00
49341;BME280;35209;51.050;13.678;2022-10-31T08:34:30;100520.50;;;10.48;100.00
49341;BME280;35209;51.050;13.678;2022-10-31T08:40:07;100518.50;;;10.57;100.00
49341;BME280;35209;51.050;13.678;2022-10-31T08:45:09;100515.59;;;10.70;100.00
49341;BME280;35209;51.050;13.678;2022-10-31T08:50:11;100515.88;;;10.93;100.00
49341;BME280;35209;51.050;13.678;2022-10-31T08:55:13;100527.66;;;11.13;100.00
49341;BME280;35209;51.050;13.678;2022-10-31T09:00:34;100523.91;;;11.85;98.72
49341;BME280;35209;51.050;13.678;2022-10-31T09:05:44;100519.03;;;11.71;99.10
49341;BME280;35209;51.050;13.678;2022-10-31T09:10:47;100521.34;;;11.82;100.00
49341;BME280;35209;51.050;13.678;2022-10-31T09:15:56;100516.88;;;11.85;100.00
49341;BME280;35209;51.050;13.678;2022-10-31T09:20:59;100525.19;;;12.01;99.01
49341;BME280;35209;51.050;13.678;2022-10-31T09:26:08;100520.81;;;12.58;94.13
49341;BME280;35209;51.050;13.678;2022-10-31T09:31:36;100524.94;;;12.93;91.27
49341;BME280;35209;51.050;13.678;2022-10-31T09:36:59;100518.97;;;12.86;93.65
49341;BME280;35209;51.050;13.678;2022-10-31T09:42:40;100524.44;;;13.33;89.27
49341;BME280;35209;51.050;13.678;2022-10-31T09:53:17;100520.88;;;13.59;89.21
49341;BME280;35209;51.050;13.678;2022-10-31T09:58:25;100532.78;;;13.95;84.41
49341;BME280;35209;51.050;13.678;2022-10-31T10:08:44;100521.19;;;14.21;84.56
49341;BME280;35209;51.050;13.678;2022-10-31T10:14:21;100508.31;;;14.35;83.28
49341;BME280;35209;51.050;13.678;2022-10-31T10:25:30;100503.56;;;16.61;70.89
49341;BME280;35209;51.050;13.678;2022-10-31T10:30:44;100497.78;;;16.89;69.89
49341;BME280;35209;51.050;13.678;2022-10-31T10:35:51;100503.16;;;17.40;69.05
49341;BME280;35209;51.050;13.678;2022-10-31T10:40:54;100501.91;;;17.12;68.44
49341;BME280;35209;51.050;13.678;2022-10-31T10:46:19;100496.94;;;18.06;65.29
49341;BME280;35209;51.050;13.678;2022-10-31T10:57:26;100485.56;;;18.81;60.99
49341;BME280;35209;51.050;13.678;2022-10-31T11:02:32;100483.47;;;19.16;61.59
49341;BME280;35209;51.050;13.678;2022-10-31T11:07:40;100476.28;;;19.90;57.21
49341;BME280;35209;51.050;13.678;2022-10-31T11:12:45;100475.13;;;20.89;54.22
49341;BME280;35209;51.050;13.678;2022-10-31T11:17:58;100462.06;;;20.85;54.37
49341;BME280;35209;51.050;13.678;2022-10-31T11:23:17;100457.91;;;20.81;54.85
49341;BME280;35209;51.050;13.678;2022-10-31T11:28:19;100459.38;;;20.85;55.12
49341;BME280;35209;51.050;13.678;2022-10-31T11:33:29;100444.91;;;21.14;52.96
49341;BME280;35209;51.050;13.678;2022-10-31T11:38:40;100443.00;;;20.64;53.86
49341;BME280;35209;51.050;13.678;2022-10-31T11:44:17;100443.44;;;20.71;52.74
49341;BME280;35209;51.050;13.678;2022-10-31T11:49:35;100432.50;;;20.07;55.02
49341;BME280;35209;51.050;13.678;2022-10-31T11:54:47;100417.97;;;19.55;58.39
49341;BME280;35209;51.050;13.678;2022-10-31T11:59:52;100408.97;;;19.44;60.57
49341;BME280;35209;51.050;13.678;2022-10-31T12:05:04;100405.78;;;19.51;57.40
49341;BME280;35209;51.050;13.678;2022-10-31T12:10:11;100405.59;;;19.11;59.74
49341;BME280;35209;51.050;13.678;2022-10-31T12:15:30;100400.19;;;18.69;61.43
49341;BME280;35209;51.050;13.678;2022-10-31T12:20:56;100393.50;;;18.77;60.64
49341;BME280;35209;51.050;13.678;2022-10-31T12:31:49;100382.44;;;18.23;64.05
49341;BME280;35209;51.050;13.678;2022-10-31T12:47:55;100369.13;;;17.93;66.92
49341;BME280;35209;51.050;13.678;2022-10-31T12:58:33;100351.78;;;17.86;66.76
49341;BME280;35209;51.050;13.678;2022-10-31T13:09:02;100347.16;;;17.89;66.07
49341;BME280;35209;51.050;13.678;2022-10-31T13:14:12;100338.97;;;18.08;65.28
49341;BME280;35209;51.050;13.678;2022-10-31T13:19:25;100336.31;;;17.93;65.26
49341;BME280;35209;51.050;13.678;2022-10-31T13:24:36;100333.53;;;18.10;65.08
49341;BME280;35209;51.050;13.678;2022-10-31T13:29:49;100328.69;;;18.02;65.29
49341;BME280;35209;51.050;13.678;2022-10-31T13:34:57;100323.22;;;17.89;65.54
49341;BME280;35209;51.050;13.678;2022-10-31T13:45:16;100324.75;;;17.94;65.18
49341;BME280;35209;51.050;13.678;2022-10-31T13:50:22;100320.75;;;18.17;64.54
49341;BME280;35209;51.050;13.678;2022-10-31T13:55:41;100313.38;;;17.76;66.29
49341;BME280;35209;51.050;13.678;2022-10-31T14:00:43;100314.88;;;17.96;66.06
49341;BME280;35209;51.050;13.678;2022-10-31T14:05:52;100306.47;;;17.87;65.84
49341;BME280;35209;51.050;13.678;2022-10-31T14:10:55;100299.19;;;17.91;64.88
49341;BME280;35209;51.050;13.678;2022-10-31T14:16:06;100298.09;;;17.79;66.29
49341;BME280;35209;51.050;13.678;2022-10-31T14:31:44;100283.00;;;17.32;68.41
49341;BME280;35209;51.050;13.678;2022-10-31T14:52:50;100264.50;;;16.82;77.82
49341;BME280;35209;51.050;13.678;2022-10-31T14:57:57;100268.63;;;16.54;82.22
49341;BME280;35209;51.050;13.678;2022-10-31T15:03:06;100248.72;;;16.46;85.88
49341;BME280;35209;51.050;13.678;2022-10-31T15:08:13;100259.13;;;16.15;86.58
49341;BME280;35209;51.050;13.678;2022-10-31T15:13:19;100253.03;;;15.79;89.82
49341;BME280;35209;51.050;13.678;2022-10-31T15:18:25;100253.19;;;15.76;89.51
49341;BME280;35209;51.050;13.678;2022-10-31T15:23:29;100247.06;;;15.56;88.73
49341;BME280;35209;51.050;13.678;2022-10-31T15:28:31;100241.88;;;15.17;90.93
49341;BME280;35209;51.050;13.678;2022-10-31T15:33:40;100236.16;;;15.07;92.11
49341;BME280;35209;51.050;13.678;2022-10-31T15:38:49;100235.78;;;14.96;92.82
49341;BME280;35209;51.050;13.678;2022-10-31T15:43:51;100239.16;;;14.81;93.70
49341;BME280;35209;51.050;13.678;2022-10-31T15:48:53;100226.19;;;14.56;95.58
49341;BME280;35209;51.050;13.678;2022-10-31T15:53:56;100220.13;;;14.54;96.54
49341;BME280;35209;51.050;13.678;2022-10-31T15:58:59;100215.09;;;14.27;98.49
49341;BME280;35209;51.050;13.678;2022-10-31T16:04:22;100210.69;;;13.87;100.00
49341;BME280;35209;51.050;13.678;2022-10-31T16:09:24;100201.09;;;13.84;100.00
49341;BME280;35209;51.050;13.678;2022-10-31T16:14:28;100205.09;;;13.52;100.00
49341;BME280;35209;51.050;13.678;2022-10-31T16:19:36;100206.03;;;13.29;100.00
49341;BME280;35209;51.050;13.678;2022-10-31T16:24:52;100213.28;;;13.24;100.00
49341;BME280;35209;51.050;13.678;2022-10-31T16:29:56;100215.25;;;13.18;100.00
49341;BME280;35209;51.050;13.678;2022-10-31T16:40:11;100204.38;;;13.03;100.00
49341;BME280;35209;51.050;13.678;2022-10-31T16:45:26;100207.78;;;13.51;100.00
49341;BME280;35209;51.050;13.678;2022-10-31T16:50:28;100207.19;;;13.22;100.00
49341;BME280;35209;51.050;13.678;2022-10-31T16:55:31;100207.19;;;12.99;100.00
49341;BME280;35209;51.050;13.678;2022-10-31T17:00:33;100207.09;;;13.02;100.00
49341;BME280;35209;51.050;13.678;2022-10-31T17:05:34;100201.56;;;13.08;100.00
49341;BME280;35209;51.050;13.678;2022-10-31T17:10:37;100200.63;;;13.09;100.00
49341;BME280;35209;51.050;13.678;2022-10-31T17:15:46;100203.81;;;12.95;100.00
49341;BME280;35209;51.050;13.678;2022-10-31T17:20:49;100192.63;;;12.67;100.00
49341;BME280;35209;51.050;13.678;2022-10-31T17:25:51;100194.44;;;12.65;100.00
49341;BME280;35209;51.050;13.678;2022-10-31T17:30:54;100192.69;;;12.87;100.00
49341;BME280;35209;51.050;13.678;2022-10-31T17:35:56;100192.66;;;12.65;100.00
49341;BME280;35209;51.050;13.678;2022-10-31T17:40:57;100181.34;;;12.38;100.00
49341;BME280;35209;51.050;13.678;2022-10-31T17:45:59;100183.09;;;12.62;100.00
49341;BME280;35209;51.050;13.678;2022-10-31T17:51:05;100177.31;;;12.53;100.00
49341;BME280;35209;51.050;13.678;2022-10-31T17:56:08;100170.44;;;12.49;100.00
49341;BME280;35209;51.050;13.678;2022-10-31T18:01:13;100182.44;;;12.56;100.00
49341;BME280;35209;51.050;13.678;2022-10-31T18:06:15;100175.47;;;12.31;100.00
49341;BME280;35209;51.050;13.678;2022-10-31T18:11:19;100168.53;;;12.29;100.00
49341;BME280;35209;51.050;13.678;2022-10-31T18:16:22;100183.94;;;12.63;100.00
49341;BME280;35209;51.050;13.678;2022-10-31T18:21:24;100171.47;;;12.45;100.00
49341;BME280;35209;51.050;13.678;2022-10-31T18:26:26;100172.34;;;12.20;100.00
49341;BME280;35209;51.050;13.678;2022-10-31T18:31:28;100168.50;;;12.05;100.00
49341;BME280;35209;51.050;13.678;2022-10-31T18:36:30;100160.84;;;11.98;100.00
49341;BME280;35209;51.050;13.678;2022-10-31T18:41:32;100148.94;;;11.88;100.00
49341;BME280;35209;51.050;13.678;2022-10-31T18:46:34;100157.63;;;11.90;100.00
49341;BME280;35209;51.050;13.678;2022-10-31T18:51:36;100151.44;;;11.91;100.00
49341;BME280;35209;51.050;13.678;2022-10-31T18:56:38;100155.59;;;11.71;100.00
49341;BME280;35209;51.050;13.678;2022-10-31T19:01:39;100148.78;;;11.66;100.00
49341;BME280;35209;51.050;13.678;2022-10-31T19:06:41;100143.63;;;11.62;100.00
49341;BME280;35209;51.050;13.678;2022-10-31T19:11:43;100150.56;;;11.65;100.00
49341;BME280;35209;51.050;13.678;2022-10-31T19:16:45;100143.13;;;11.51;100.00
49341;BME280;35209;51.050;13.678;2022-10-31T19:21:46;100140.97;;;11.62;100.00
49341;BME280;35209;51.050;13.678;2022-10-31T19:26:48;100131.75;;;11.76;100.00
49341;BME280;35209;51.050;13.678;2022-10-31T19:31:50;100122.41;;;11.42;100.00
49341;BME280;35209;51.050;13.678;2022-10-31T19:36:52;100130.22;;;11.44;100.00
49341;BME280;35209;51.050;13.678;2022-10-31T19:41:53;100119.56;;;11.22;100.00
49341;BME280;35209;51.050;13.678;2022-10-31T19:46:55;100122.66;;;11.06;100.00
49341;BME280;35209;51.050;13.678;2022-10-31T19:51:57;100113.91;;;11.07;100.00
49341;BME280;35209;51.050;13.678;2022-10-31T19:56:59;100112.44;;;11.25;100.00
49341;BME280;35209;51.050;13.678;2022-10-31T20:02:01;100098.56;;;11.20;100.00
49341;BME280;35209;51.050;13.678;2022-10-31T20:07:03;100094.56;;;11.35;100.00
49341;BME280;35209;51.050;13.678;2022-10-31T20:12:05;100098.81;;;11.13;100.00
49341;BME280;35209;51.050;13.678;2022-10-31T20:17:06;100098.41;;;10.98;100.00
49341;BME280;35209;51.050;13.678;2022-10-31T20:22:09;100084.50;;;11.21;100.00
49341;BME280;35209;51.050;13.678;2022-10-31T20:27:11;100091.69;;;11.16;100.00
49341;BME280;35209;51.050;13.678;2022-10-31T20:32:12;100095.25;;;11.14;100.00
49341;BME280;35209;51.050;13.678;2022-10-31T20:37:14;100083.66;;;11.19;100.00
49341;BME280;35209;51.050;13.678;2022-10-31T20:42:16;100076.75;;;11.17;100.00
49341;BME280;35209;51.050;13.678;2022-10-31T20:47:17;100072.84;;;11.53;100.00
49341;BME280;35209;51.050;13.678;2022-10-31T20:52:25;100065.84;;;11.77;100.00
49341;BME280;35209;51.050;13.678;2022-10-31T20:57:26;100053.13;;;11.90;100.00
49341;BME280;35209;51.050;13.678;2022-10-31T21:02:28;100040.97;;;12.33;100.00
49341;BME280;35209;51.050;13.678;2022-10-31T21:07:30;100045.81;;;12.44;100.00
49341;BME280;35209;51.050;13.678;2022-10-31T21:12:32;100051.41;;;12.36;100.00
49341;BME280;35209;51.050;13.678;2022-10-31T21:17:34;100044.03;;;11.99;100.00
49341;BME280;35209;51.050;13.678;2022-10-31T21:22:36;100034.91;;;12.07;100.00
49341;BME280;35209;51.050;13.678;2022-10-31T21:27:37;100034.88;;;12.09;100.00
49341;BME280;35209;51.050;13.678;2022-10-31T21:32:39;100046.28;;;12.09;100.00
49341;BME280;35209;51.050;13.678;2022-10-31T21:37:40;100036.78;;;11.80;100.00
49341;BME280;35209;51.050;13.678;2022-10-31T21:42:42;100026.13;;;11.60;100.00
49341;BME280;35209;51.050;13.678;2022-10-31T21:47:43;100023.69;;;11.54;100.00
49341;BME280;35209;51.050;13.678;2022-10-31T21:52:45;100016.13;;;11.45;100.00
49341;BME280;35209;51.050;13.678;2022-10-31T21:57:47;100015.59;;;11.35;100.00
49341;BME280;35209;51.050;13.678;2022-10-31T22:02:48;100000.81;;;11.31;100.00
49341;BME280;35209;51.050;13.678;2022-10-31T22:07:50;99990.38;;;11.29;100.00
49341;BME280;35209;51.050;13.678;2022-10-31T22:12:51;99981.97;;;11.18;100.00
49341;BME280;35209;51.050;13.678;2022-10-31T22:17:53;99988.25;;;11.14;100.00
49341;BME280;35209;51.050;13.678;2022-10-31T22:22:54;99983.09;;;11.11;100.00
49341;BME280;35209;51.050;13.678;2022-10-31T22:27:56;99991.41;;;11.24;100.00
49341;BME280;35209;51.050;13.678;2022-10-31T22:32:58;99984.59;;;11.18;100.00
49341;BME280;35209;51.050;13.678;2022-10-31T22:38:00;99961.69;;;11.22;100.00
49341;BME280;35209;51.050;13.678;2022-10-31T22:43:02;99971.28;;;11.23;100.00
49341;BME280;35209;51.050;13.678;2022-10-31T22:48:04;99954.97;;;11.61;100.00
49341;BME280;35209;51.050;13.678;2022-10-31T22:53:06;99950.22;;;11.48;100.00
49341;BME280;35209;51.050;13.678;2022-10-31T22:58:08;99946.25;;;11.36;100.00
49341;BME280;35209;51.050;13.678;2022-10-31T23:03:11;99944.97;;;11.23;100.00
49341;BME280;35209;51.050;13.678;2022-10-31T23:08:17;99937.03;;;11.24;100.00
49341;BME280;35209;51.050;13.678;2022-10-31T23:13:19;99932.25;;;11.35;100.00
49341;BME280;35209;51.050;13.678;2022-10-31T23:18:39;99928.03;;;11.77;100.00
49341;BME280;35209;51.050;13.678;2022-10-31T23:23:56;99922.38;;;11.64;100.00
49341;BME280;35209;51.050;13.678;2022-10-31T23:28:58;99908.94;;;11.72;100.00
49341;BME280;35209;51.050;13.678;2022-10-31T23:33:59;99901.34;;;11.41;100.00
49341;BME280;35209;51.050;13.678;2022-10-31T23:39:01;99903.97;;;11.17;100.00
49341;BME280;35209;51.050;13.678;2022-10-31T23:44:03;99888.19;;;10.92;100.00
49341;BME280;35209;51.050;13.678;2022-10-31T23:49:04;99882.06;;;10.67;100.00
49341;BME280;35209;51.050;13.678;2022-10-31T23:54:06;99877.03;;;10.60;100.00
49341;BME280;35209;51.050;13.678;2022-10-31T23:59:08;99884.28;;;10.79;100.00
